createdAt,value
2018-08-21T00:01:01.949Z,7.13
2018-08-21T00:03:30.871Z,7.70
2018-08-21T00:06:03.113Z,8.30
2018-08-21T00:08:30.956Z,7.40
2018-08-21T00:11:09.868Z,8.10
2018-08-21T00:13:37.476Z,7.40
2018-08-21T00:16:06.227Z,7.60
2018-08-21T00:18:33.933Z,7.90
2018-08-21T00:21:01.712Z,8.83
2018-08-21T00:23:29.936Z,7.37
2018-08-21T00:25:57.679Z,8.43
2018-08-21T00:28:25.355Z,8.33
2018-08-21T00:30:53.076Z,8.03
2018-08-21T00:33:21.524Z,7.30
2018-08-21T00:35:55.624Z,7.73
2018-08-21T00:38:25.253Z,7.43
2018-08-21T00:40:53.851Z,7.90
2018-08-21T00:43:21.423Z,6.93
2018-08-21T00:45:49.304Z,8.40
2018-08-21T00:48:17.716Z,7.80
2018-08-21T00:50:46.076Z,10.10
2018-08-21T00:53:14.128Z,8.07
2018-08-21T00:55:42.559Z,8.60
2018-08-21T00:58:10.079Z,7.33
2018-08-21T01:00:37.908Z,8.87
2018-08-21T01:03:05.684Z,6.90
2018-08-21T01:05:33.315Z,7.27
2018-08-21T01:08:00.975Z,7.93
2018-08-21T01:10:29.524Z,7.50
2018-08-21T01:12:57.249Z,7.60
2018-08-21T01:15:25.014Z,7.10
2018-08-21T01:17:52.688Z,7.40
2018-08-21T01:20:21.189Z,7.70
2018-08-21T01:22:48.981Z,8.23
2018-08-21T01:25:16.526Z,7.27
2018-08-21T01:27:45.098Z,8.07
2018-08-21T01:30:15.435Z,7.17
2018-08-21T01:32:43.522Z,7.30
2018-08-21T01:35:12.475Z,8.90
2018-08-21T01:37:40.503Z,7.13
2018-08-21T01:40:09.914Z,8.53
2018-08-21T01:42:37.656Z,7.43
2018-08-21T01:45:05.595Z,8.43
2018-08-21T01:47:33.895Z,8.37
2018-08-21T01:50:02.505Z,10.00
2018-08-21T01:52:30.075Z,8.30
2018-08-21T01:54:57.599Z,7.87
2018-08-21T01:57:25.307Z,7.63
2018-08-21T01:59:52.991Z,7.60
2018-08-21T02:02:20.637Z,7.40
2018-08-21T02:04:48.198Z,9.20
2018-08-21T02:07:15.928Z,8.37
2018-08-21T02:09:43.739Z,7.97
2018-08-21T02:12:11.391Z,7.23
2018-08-21T02:14:39.056Z,7.20
2018-08-21T02:17:07.084Z,8.00
2018-08-21T02:19:34.929Z,9.73
2018-08-21T02:22:02.541Z,8.30
2018-08-21T02:24:30.943Z,8.27
2018-08-21T02:26:58.728Z,9.07
2018-08-21T02:29:26.808Z,7.43
2018-08-21T02:31:54.497Z,7.93
2018-08-21T02:34:22.164Z,9.30
2018-08-21T02:36:49.840Z,7.57
2018-08-21T02:39:17.404Z,7.93
2018-08-21T02:41:45.220Z,8.20
2018-08-21T02:44:13.551Z,8.00
2018-08-21T02:46:41.301Z,9.60
2018-08-21T02:49:08.891Z,9.90
2018-08-21T02:51:40.293Z,8.33
2018-08-21T02:54:09.073Z,8.20
2018-08-21T02:56:38.796Z,7.63
2018-08-21T02:59:06.516Z,10.10
2018-08-21T03:01:42.155Z,9.23
2018-08-21T03:04:12.236Z,8.83
2018-08-21T03:06:40.346Z,9.63
2018-08-21T03:09:11.819Z,9.07
2018-08-21T03:11:39.728Z,8.30
2018-08-21T03:14:07.476Z,8.63
2018-08-21T03:16:35.112Z,10.57
2018-08-21T03:19:02.753Z,8.73
2018-08-21T03:21:30.422Z,9.00
2018-08-21T03:23:58.144Z,8.70
2018-08-21T03:26:26.064Z,10.40
2018-08-21T03:28:53.680Z,8.57
2018-08-21T03:31:21.563Z,9.07
2018-08-21T03:33:49.900Z,8.37
2018-08-21T03:36:17.617Z,9.20
2018-08-21T03:38:45.260Z,9.30
2018-08-21T03:41:13.100Z,9.97
2018-08-21T03:43:43.190Z,9.07
2018-08-21T03:46:11.202Z,9.17
2018-08-21T03:48:39.675Z,8.80
2018-08-21T03:51:07.224Z,8.40
2018-08-21T03:53:41.533Z,9.47
2018-08-21T03:56:09.751Z,9.63
2018-08-21T03:58:38.286Z,9.90
2018-08-21T04:01:06.715Z,9.80
2018-08-21T04:03:36.451Z,9.53
2018-08-21T04:06:17.132Z,11.60
2018-08-21T04:08:44.995Z,10.10
2018-08-21T04:11:12.649Z,9.70
2018-08-21T04:13:40.491Z,12.30
2018-08-21T04:16:08.460Z,9.20
2018-08-21T04:18:40.984Z,9.70
2018-08-21T04:21:08.696Z,9.77
2018-08-21T04:23:36.476Z,9.40
2018-08-21T04:26:04.368Z,9.93
2018-08-21T04:28:32.256Z,9.97
2018-08-21T04:31:00.809Z,9.33
2018-08-21T04:33:29.410Z,10.33
2018-08-21T04:35:56.995Z,10.30
2018-08-21T04:38:24.952Z,9.53
2018-08-21T04:40:52.638Z,9.93
2018-08-21T04:43:20.304Z,10.57
2018-08-21T04:45:47.976Z,9.43
2018-08-21T04:48:15.727Z,10.63
2018-08-21T04:50:43.531Z,9.63
2018-08-21T04:53:11.243Z,11.70
2018-08-21T04:55:38.910Z,10.30
2018-08-21T04:58:07.275Z,11.53
2018-08-21T05:00:40.560Z,10.80
2018-08-21T05:03:08.416Z,11.13
2018-08-21T05:05:36.000Z,10.50
2018-08-21T05:08:03.669Z,11.07
2018-08-21T05:10:31.445Z,10.20
2018-08-21T05:12:59.615Z,10.63
2018-08-21T05:15:29.313Z,10.53
2018-08-21T05:17:58.855Z,10.80
2018-08-21T05:20:29.958Z,13.30
2018-08-21T05:22:57.872Z,10.20
2018-08-21T05:25:37.175Z,10.67
2018-08-21T05:28:05.220Z,11.17
2018-08-21T05:30:38.574Z,10.90
2018-08-21T05:33:06.196Z,10.23
2018-08-21T05:35:34.083Z,11.57
2018-08-21T05:38:01.832Z,11.13
2018-08-21T05:40:29.534Z,11.27
2018-08-21T05:42:57.660Z,12.07
2018-08-21T05:45:28.740Z,12.00
2018-08-21T05:47:56.959Z,11.03
2018-08-21T05:50:25.888Z,12.10
2018-08-21T05:52:53.663Z,12.23
2018-08-21T05:55:21.487Z,11.70
2018-08-21T05:57:49.312Z,12.47
2018-08-21T06:00:19.115Z,12.23
2018-08-21T06:02:48.844Z,13.03
2018-08-21T06:05:16.620Z,11.90
2018-08-21T06:07:44.859Z,12.53
2018-08-21T06:10:13.119Z,14.93
2018-08-21T06:13:01.611Z,14.60
2018-08-21T06:15:31.563Z,14.07
2018-08-21T06:18:02.970Z,16.83
2018-08-21T06:20:41.220Z,14.23
2018-08-21T06:23:13.627Z,13.63
2018-08-21T06:25:41.568Z,14.27
2018-08-21T06:28:10.240Z,14.73
2018-08-21T06:30:39.376Z,15.07
2018-08-21T06:33:08.560Z,15.40
2018-08-21T06:35:37.121Z,14.97
2018-08-21T06:38:05.746Z,15.07
2018-08-21T06:40:35.104Z,14.10
2018-08-21T06:43:04.027Z,13.87
2018-08-21T06:45:31.728Z,13.53
2018-08-21T06:48:00.604Z,13.00
2018-08-21T06:50:28.323Z,16.00
2018-08-21T06:52:57.590Z,13.97
2018-08-21T06:55:25.291Z,13.07
2018-08-21T06:57:52.972Z,13.77
2018-08-21T07:00:20.707Z,12.90
2018-08-21T07:02:48.351Z,11.43
2018-08-21T07:05:16.083Z,11.80
2018-08-21T07:07:43.760Z,11.80
2018-08-21T07:10:14.872Z,11.93
2018-08-21T07:12:42.504Z,12.37
2018-08-21T07:15:10.076Z,12.50
2018-08-21T07:17:43.497Z,11.47
2018-08-21T07:20:11.380Z,10.77
2018-08-21T07:22:39.045Z,11.73
2018-08-21T07:25:06.619Z,10.20
2018-08-21T07:27:34.251Z,9.80
2018-08-21T07:30:03.416Z,10.20
2018-08-21T07:32:32.281Z,10.00
2018-08-21T07:35:07.908Z,9.93
2018-08-21T07:37:35.996Z,9.13
2018-08-21T07:40:04.260Z,9.00
2018-08-21T07:42:32.759Z,9.43
2018-08-21T07:45:00.430Z,12.73
2018-08-21T07:47:33.627Z,11.20
2018-08-21T07:50:06.695Z,8.90
2018-08-21T07:52:37.906Z,8.50
2018-08-21T07:55:05.472Z,8.90
2018-08-21T07:57:33.287Z,9.27
2018-08-21T08:00:00.960Z,7.93
2018-08-21T08:02:42.164Z,9.87
2018-08-21T08:05:14.452Z,8.17
2018-08-21T08:07:42.173Z,8.60
2018-08-21T08:10:15.571Z,9.10
2018-08-21T08:12:43.228Z,9.17
2018-08-21T08:15:10.895Z,9.27
2018-08-21T08:17:43.343Z,8.03
2018-08-21T08:20:10.976Z,8.50
2018-08-21T08:22:38.504Z,9.83
2018-08-21T08:25:06.208Z,8.23
2018-08-21T08:27:33.838Z,7.33
2018-08-21T08:30:01.623Z,7.57
2018-08-21T08:32:29.226Z,8.33
2018-08-21T08:34:59.267Z,7.27
2018-08-21T08:37:27.436Z,6.13
2018-08-21T08:39:55.242Z,6.80
2018-08-21T08:42:22.836Z,6.30
2018-08-21T08:44:50.432Z,5.67
2018-08-21T08:47:17.986Z,5.00
2018-08-21T08:49:51.976Z,5.87
2018-08-21T08:52:20.439Z,5.50
2018-08-21T08:54:49.561Z,7.20
2018-08-21T08:57:17.328Z,6.53
2018-08-21T08:59:52.692Z,6.33
2018-08-21T09:02:21.244Z,6.63
2018-08-21T09:04:49.040Z,5.90
2018-08-21T09:07:16.660Z,4.53
2018-08-21T09:09:44.315Z,5.57
2018-08-21T09:12:11.936Z,5.63
2018-08-21T09:14:39.932Z,6.13
2018-08-21T09:17:17.688Z,6.93
2018-08-21T09:20:06.265Z,6.53
2018-08-21T09:22:34.808Z,6.53
2018-08-21T09:25:02.663Z,6.17
2018-08-21T09:27:35.916Z,6.37
2018-08-21T09:30:03.596Z,6.30
2018-08-21T09:32:33.467Z,6.10
2018-08-21T09:35:05.148Z,5.87
2018-08-21T09:37:32.760Z,5.40
2018-08-21T09:40:01.083Z,5.90
2018-08-21T09:42:28.864Z,6.10
2018-08-21T09:44:57.060Z,5.53
2018-08-21T09:47:25.204Z,6.10
2018-08-21T09:49:58.777Z,7.07
2018-08-21T09:52:27.407Z,6.47
2018-08-21T09:54:57.535Z,7.07
2018-08-21T09:57:26.484Z,6.33
2018-08-21T09:59:57.339Z,7.13
2018-08-21T10:02:30.564Z,5.33
2018-08-21T10:05:03.664Z,6.13
2018-08-21T10:07:39.605Z,7.70
2018-08-21T10:10:08.108Z,5.60
2018-08-21T10:12:36.162Z,6.10
2018-08-21T10:15:07.136Z,6.50
2018-08-21T10:17:34.840Z,6.23
2018-08-21T10:20:08.324Z,6.40
2018-08-21T10:22:36.012Z,7.20
2018-08-21T10:25:04.297Z,5.30
2018-08-21T10:27:31.946Z,5.83
2018-08-21T10:29:59.944Z,5.67
2018-08-21T10:32:27.782Z,7.33
2018-08-21T10:34:55.479Z,5.50
2018-08-21T10:37:27.675Z,5.97
2018-08-21T10:39:55.416Z,6.10
2018-08-21T10:42:23.197Z,5.83
2018-08-21T10:44:50.828Z,5.83
2018-08-21T10:47:18.444Z,5.87
2018-08-21T10:49:47.868Z,5.80
2018-08-21T10:52:15.640Z,6.80
2018-08-21T10:54:43.440Z,6.10
2018-08-21T10:57:11.036Z,5.97
2018-08-21T10:59:38.641Z,5.30
2018-08-21T11:02:09.959Z,6.10
2018-08-21T11:04:37.584Z,5.83
2018-08-21T11:07:09.924Z,6.93
2018-08-21T11:09:37.709Z,6.50
2018-08-21T11:12:05.841Z,5.73
2018-08-21T11:14:33.492Z,6.20
2018-08-21T11:17:01.348Z,6.67
2018-08-21T11:19:29.028Z,6.77
2018-08-21T11:21:56.728Z,6.30
2018-08-21T11:24:24.636Z,8.07
2018-08-21T11:26:52.188Z,6.10
2018-08-21T11:29:20.114Z,5.40
2018-08-21T11:31:47.776Z,6.70
2018-08-21T11:34:15.444Z,6.00
2018-08-21T11:36:43.175Z,5.63
2018-08-21T11:39:11.064Z,6.83
2018-08-21T11:41:38.813Z,5.97
2018-08-21T11:44:06.711Z,6.00
2018-08-21T11:46:34.336Z,6.53
2018-08-21T11:49:01.934Z,6.17
2018-08-21T11:51:30.336Z,6.77
2018-08-21T11:53:57.978Z,6.37
2018-08-21T11:56:25.817Z,6.60
2018-08-21T11:58:54.272Z,5.30
2018-08-21T12:01:22.072Z,6.67
2018-08-21T12:03:49.900Z,7.03
2018-08-21T12:06:17.692Z,6.13
2018-08-21T12:08:45.409Z,6.87
2018-08-21T12:11:13.368Z,6.40
2018-08-21T12:13:41.336Z,6.10
2018-08-21T12:16:09.057Z,5.90
2018-08-21T12:18:36.666Z,6.27
2018-08-21T12:21:04.301Z,6.03
2018-08-21T12:23:31.840Z,6.70
2018-08-21T12:25:59.494Z,6.10
2018-08-21T12:28:27.641Z,6.40
2018-08-21T12:30:55.371Z,6.13
2018-08-21T12:33:23.279Z,6.23
2018-08-21T12:35:51.163Z,7.40
2018-08-21T12:38:19.185Z,7.30
2018-08-21T12:40:46.972Z,6.43
2018-08-21T12:43:15.486Z,6.63
2018-08-21T12:45:43.044Z,6.87
2018-08-21T12:48:10.680Z,7.30
2018-08-21T12:50:38.428Z,7.00
2018-08-21T12:53:06.297Z,6.63
2018-08-21T12:55:34.061Z,6.13
2018-08-21T12:58:01.824Z,6.90
2018-08-21T13:00:29.369Z,6.27
2018-08-21T13:02:57.103Z,5.90
2018-08-21T13:05:24.824Z,6.47
2018-08-21T13:07:52.491Z,6.33
2018-08-21T13:10:20.261Z,6.93
2018-08-21T13:12:47.798Z,5.70
2018-08-21T13:15:15.536Z,6.53
2018-08-21T13:17:43.297Z,5.63
2018-08-21T13:20:11.089Z,6.87
2018-08-21T13:22:38.733Z,6.60
2018-08-21T13:25:06.376Z,6.77
2018-08-21T13:27:34.510Z,6.40
2018-08-21T13:30:02.284Z,6.30
2018-08-21T13:32:30.080Z,6.63
2018-08-21T13:34:57.945Z,9.10
2018-08-21T13:37:25.633Z,6.67
2018-08-21T13:39:53.524Z,6.40
2018-08-21T13:42:21.141Z,6.87
2018-08-21T13:44:49.051Z,6.37
2018-08-21T13:47:16.768Z,6.80
2018-08-21T13:49:44.328Z,6.77
2018-08-21T13:52:11.866Z,6.80
2018-08-21T13:54:39.437Z,6.90
2018-08-21T13:57:07.152Z,5.93
2018-08-21T13:59:34.918Z,7.07
2018-08-21T14:02:02.649Z,6.63
2018-08-21T14:04:30.412Z,6.43
2018-08-21T14:06:58.024Z,6.80
2018-08-21T14:09:26.273Z,6.37
2018-08-21T14:11:53.814Z,6.10
2018-08-21T14:14:21.544Z,6.47
2018-08-21T14:16:49.415Z,6.20
2018-08-21T14:19:17.320Z,7.03
2018-08-21T14:21:45.046Z,6.40
2018-08-21T14:24:12.689Z,7.03
2018-08-21T14:26:40.357Z,6.43
2018-08-21T14:29:07.973Z,6.53
2018-08-21T14:31:35.660Z,5.70
2018-08-21T14:34:03.439Z,6.17
2018-08-21T14:36:31.052Z,6.63
2018-08-21T14:38:58.764Z,6.43
2018-08-21T14:41:26.409Z,6.77
2018-08-21T14:43:54.293Z,6.57
2018-08-21T14:46:22.367Z,6.60
2018-08-21T14:48:50.013Z,6.37
2018-08-21T14:51:17.785Z,6.23
2018-08-21T14:53:45.530Z,6.90
2018-08-21T14:56:14.429Z,6.10
2018-08-21T14:58:42.005Z,6.47
2018-08-21T15:01:09.559Z,6.30
2018-08-21T15:03:37.316Z,5.43
2018-08-21T15:06:05.222Z,6.20
2018-08-21T15:08:33.036Z,5.27
2018-08-21T15:11:00.732Z,5.77
2018-08-21T15:13:28.340Z,5.00
2018-08-21T15:15:55.928Z,5.90
2018-08-21T15:18:24.273Z,5.70
2018-08-21T15:20:52.024Z,5.93
2018-08-21T15:23:19.695Z,6.33
2018-08-21T15:25:47.364Z,5.43
2018-08-21T15:28:15.044Z,5.70
2018-08-21T15:30:42.796Z,5.53
2018-08-21T15:33:11.053Z,5.83
2018-08-21T15:35:39.339Z,5.87
2018-08-21T15:38:07.401Z,6.20
2018-08-21T15:40:35.166Z,6.10
2018-08-21T15:43:02.754Z,6.00
2018-08-21T15:45:30.305Z,5.57
2018-08-21T15:47:58.116Z,5.10
2018-08-21T15:50:25.840Z,4.93
2018-08-21T15:52:53.574Z,5.93
2018-08-21T15:55:21.217Z,5.07
2018-08-21T15:57:48.872Z,5.60
2018-08-21T16:00:16.545Z,5.73
2018-08-21T16:02:44.161Z,5.30
2018-08-21T16:05:11.765Z,5.33
2018-08-21T16:07:42.159Z,6.17
2018-08-21T16:10:10.100Z,6.03
2018-08-21T16:12:37.904Z,5.60
2018-08-21T16:15:06.461Z,5.60
2018-08-21T16:17:34.377Z,4.90
2018-08-21T16:20:02.169Z,5.63
2018-08-21T16:22:29.831Z,5.20
2018-08-21T16:24:57.713Z,5.60
2018-08-21T16:27:25.300Z,5.30
2018-08-21T16:29:53.359Z,5.03
2018-08-21T16:32:21.013Z,5.53
2018-08-21T16:34:48.658Z,5.67
2018-08-21T16:37:16.368Z,5.60
2018-08-21T16:39:44.270Z,8.10
2018-08-21T16:42:11.702Z,5.80
2018-08-21T16:44:39.380Z,5.27
2018-08-21T16:47:07.197Z,7.33
2018-08-21T16:49:35.001Z,6.10
2018-08-21T16:52:02.616Z,5.83
2018-08-21T16:54:30.543Z,5.30
2018-08-21T16:56:58.414Z,4.63
2018-08-21T16:59:26.069Z,6.03
2018-08-21T17:01:53.756Z,5.53
2018-08-21T17:04:21.512Z,5.20
2018-08-21T17:06:49.196Z,5.33
2018-08-21T17:09:16.926Z,5.17
2018-08-21T17:11:44.762Z,4.80
2018-08-21T17:14:12.428Z,5.30
2018-08-21T17:16:40.099Z,5.13
2018-08-21T17:19:07.711Z,5.80
2018-08-21T17:21:35.538Z,5.27
2018-08-21T17:24:03.251Z,5.33
2018-08-21T17:26:31.120Z,5.37
2018-08-21T17:28:58.791Z,5.10
2018-08-21T17:31:26.396Z,5.50
2018-08-21T17:33:53.959Z,4.50
2018-08-21T17:36:21.657Z,5.67
2018-08-21T17:38:49.656Z,5.70
2018-08-21T17:41:17.220Z,5.17
2018-08-21T17:43:44.884Z,4.83
2018-08-21T17:46:12.513Z,5.53
2018-08-21T17:48:40.271Z,5.70
2018-08-21T17:51:07.901Z,4.67
2018-08-21T17:53:35.744Z,5.97
2018-08-21T17:56:04.032Z,5.60
2018-08-21T17:58:31.889Z,5.17
2018-08-21T18:00:59.529Z,5.30
2018-08-21T18:03:28.084Z,5.50
2018-08-21T18:05:56.275Z,5.40
2018-08-21T18:08:23.908Z,5.50
2018-08-21T18:10:51.544Z,5.53
2018-08-21T18:13:19.439Z,5.63
2018-08-21T18:15:47.264Z,5.87
2018-08-21T18:18:15.075Z,6.03
2018-08-21T18:20:42.785Z,5.00
2018-08-21T18:23:10.470Z,5.57
2018-08-21T18:25:38.025Z,5.37
2018-08-21T18:28:05.840Z,5.30
2018-08-21T18:30:33.748Z,5.87
2018-08-21T18:33:01.302Z,5.70
2018-08-21T18:35:29.137Z,6.20
2018-08-21T18:37:56.665Z,6.03
2018-08-21T18:40:24.472Z,5.93
2018-08-21T18:42:52.152Z,5.60
2018-08-21T18:45:19.796Z,5.53
2018-08-21T18:47:47.381Z,6.20
2018-08-21T18:50:15.032Z,6.07
2018-08-21T18:52:42.780Z,6.80
2018-08-21T18:55:10.505Z,8.20
2018-08-21T18:57:38.216Z,5.80
2018-08-21T19:00:05.929Z,6.37
2018-08-21T19:02:33.527Z,6.33
2018-08-21T19:05:01.455Z,7.73
2018-08-21T19:07:29.103Z,9.70
2018-08-21T19:09:56.984Z,5.87
2018-08-21T19:12:24.652Z,6.30
2018-08-21T19:14:52.307Z,6.97
2018-08-21T19:17:20.091Z,6.90
2018-08-21T19:19:47.675Z,6.90
2018-08-21T19:22:15.436Z,6.17
2018-08-21T19:24:43.067Z,7.07
2018-08-21T19:27:11.318Z,6.27
2018-08-21T19:29:39.148Z,6.13
2018-08-21T19:32:06.831Z,6.70
2018-08-21T19:34:34.429Z,8.00
2018-08-21T19:37:02.080Z,8.93
2018-08-21T19:39:29.721Z,6.40
2018-08-21T19:41:57.297Z,6.60
2018-08-21T19:44:24.915Z,7.03
2018-08-21T19:46:53.372Z,6.40
2018-08-21T19:49:21.077Z,6.20
2018-08-21T19:51:48.781Z,6.30
2018-08-21T19:54:16.416Z,6.23
2018-08-21T19:56:44.249Z,9.20
2018-08-21T19:59:12.184Z,5.97
2018-08-21T20:01:39.961Z,7.10
2018-08-21T20:04:07.668Z,6.73
2018-08-21T20:06:35.350Z,7.03
2018-08-21T20:09:04.015Z,7.60
2018-08-21T20:11:32.012Z,6.73
2018-08-21T20:13:59.711Z,6.97
2018-08-21T20:16:27.367Z,7.67
2018-08-21T20:18:54.948Z,8.13
2018-08-21T20:21:22.592Z,6.50
2018-08-21T20:23:50.168Z,7.13
2018-08-21T20:26:17.812Z,7.17
2018-08-21T20:28:45.494Z,7.00
2018-08-21T20:31:14.058Z,7.67
2018-08-21T20:33:41.772Z,7.20
2018-08-21T20:36:09.512Z,7.70
2018-08-21T20:38:37.363Z,7.40
2018-08-21T20:41:07.206Z,6.53
2018-08-21T20:43:34.898Z,6.43
2018-08-21T20:46:02.531Z,6.77
2018-08-21T20:48:30.292Z,7.23
2018-08-21T20:50:58.172Z,6.70
2018-08-21T20:53:25.706Z,7.40
2018-08-21T20:55:53.461Z,7.33
2018-08-21T20:58:21.180Z,7.40
2018-08-21T21:00:48.868Z,6.97
2018-08-21T21:03:16.498Z,8.60
2018-08-21T21:05:44.079Z,7.23
2018-08-21T21:08:11.752Z,7.40
2018-08-21T21:10:39.400Z,7.90
2018-08-21T21:13:18.368Z,13.60
2018-08-21T21:15:57.565Z,6.87
2018-08-21T21:18:36.550Z,11.10
2018-08-21T21:21:15.592Z,7.80
2018-08-21T21:23:42.674Z,7.47
2018-08-21T21:26:10.328Z,9.20
2018-08-21T21:28:37.967Z,8.23
2018-08-21T21:31:06.047Z,8.40
2018-08-21T21:33:33.764Z,7.87
2018-08-21T21:36:01.425Z,7.57
2018-08-21T21:38:29.036Z,7.67
2018-08-21T21:40:57.263Z,8.50
2018-08-21T21:43:25.044Z,8.70
2018-08-21T21:45:52.720Z,8.03
2018-08-21T21:48:20.505Z,9.40
2018-08-21T21:50:48.259Z,8.10
2018-08-21T21:53:15.979Z,9.80
2018-08-21T21:55:44.305Z,7.53
2018-08-21T21:58:11.970Z,7.63
2018-08-21T22:00:39.613Z,7.97
2018-08-21T22:03:07.269Z,8.30
2018-08-21T22:05:35.015Z,7.97
2018-08-21T22:08:02.803Z,8.30
2018-08-21T22:10:31.015Z,7.73
2018-08-21T22:12:58.559Z,9.13
2018-08-21T22:15:26.192Z,8.50
2018-08-21T22:17:53.927Z,7.53
2018-08-21T22:20:22.320Z,8.40
2018-08-21T22:22:49.975Z,7.77
2018-08-21T22:25:17.576Z,7.07
2018-08-21T22:27:45.312Z,8.40
2018-08-21T22:30:12.900Z,8.00
2018-08-21T22:32:40.830Z,7.47
2018-08-21T22:35:08.392Z,8.00
2018-08-21T22:37:36.260Z,8.43
2018-08-21T22:40:04.050Z,7.93
2018-08-21T22:42:31.728Z,7.77
2018-08-21T22:44:59.321Z,8.90
2018-08-21T22:47:27.166Z,9.50
2018-08-21T22:49:54.900Z,9.23
2018-08-21T22:52:22.814Z,7.70
2018-08-21T22:54:50.651Z,7.63
2018-08-21T22:57:18.431Z,7.40
2018-08-21T22:59:46.221Z,8.70
2018-08-21T23:02:13.815Z,9.33
2018-08-21T23:04:42.823Z,8.00
2018-08-21T23:07:10.588Z,7.87
2018-08-21T23:09:38.152Z,8.07
2018-08-21T23:12:05.959Z,7.70
2018-08-21T23:14:34.127Z,8.30
2018-08-21T23:17:02.586Z,8.00
2018-08-21T23:19:30.179Z,8.33
2018-08-21T23:21:57.992Z,9.43
2018-08-21T23:24:25.611Z,8.47
2018-08-21T23:26:53.271Z,8.83
2018-08-21T23:29:21.022Z,7.97
2018-08-21T23:31:48.811Z,8.17
2018-08-21T23:34:16.509Z,8.00
2018-08-21T23:36:44.237Z,7.83
2018-08-21T23:39:11.994Z,8.33
2018-08-21T23:41:40.039Z,8.53
2018-08-21T23:44:07.579Z,8.27
2018-08-21T23:46:35.202Z,9.73
2018-08-21T23:49:02.844Z,9.50
2018-08-21T23:51:31.271Z,8.40
2018-08-21T23:53:59.199Z,8.17
2018-08-21T23:56:26.755Z,9.30
2018-08-21T23:58:54.467Z,8.83
